CFK6 weather

Olds (Netook) Airport
Olds, Alberta, Canada

Public forecast

Using degrees Celsius for public forecast. Weather courtesy of forecast.io.

Closest aviation weather report (METAR) to Olds (Netook) Airport

Closest report is Red Deer Regional Airport, 20.9 nm (38.8 km) NNE. Retrieved 2020/01/26 20:00 UTC (11 minutes ago):

CYQF 262000Z 14007KT 15SM FEW150 BKN250 M04/M09 A2982 RMK AC1CI4 SLP157

Closest aviation forecast (TAF) to Olds (Netook) Airport

Closest forecast is Red Deer Regional Airport, 20.9 nm (38.8 km) NNE. Retrieved 2020/01/26 18:39 UTC (2 hours ago):

TAF CYQF 261738Z 2618/2706 VRB03KT P6SM FEW150 SCT240 BECMG 2618/2620 16010KT FM262000 16010KT P6SM SCT120 BKN200 TEMPO 2620/2702 BKN120 OVC200 BECMG 2702/2704 20005KT RMK NXT FCST BY 270000Z